Time;durP1;ratioP1;P1;durP2;ratioP2;P2;SDS_P1;SDS_P2;PMS_P1;PMS_P2;Temp;Humidity;BMP_temperature;BMP_pressure;BME280_temperature;BME280_humidity;BME280_pressure;Samples;Min_cycle;Max_cycle;Signal;HPM_P1;HPM_P2
2023/12/04 00:00:06;;;;;;;33.83;13.30;;;;;;;-148.88;100.00;-17125.47;5073823;28;20140;-87
2023/12/04 00:02:32;;;;;;;32.70;13.38;;;;;;;-148.88;100.00;-17125.47;5073868;28;20031;-87
2023/12/04 00:04:57;;;;;;;30.55;11.48;;;;;;;-148.88;100.00;-17125.47;5074206;28;20016;-87
2023/12/04 00:07:23;;;;;;;35.03;13.13;;;;;;;-148.88;100.00;-17125.47;5074346;28;20017;-88
2023/12/04 00:09:48;;;;;;;36.35;11.95;;;;;;;-148.88;100.00;-17125.47;5073051;28;20070;-87
2023/12/04 00:12:13;;;;;;;26.92;10.38;;;;;;;-148.88;100.00;-17125.47;5073771;28;20026;-86
2023/12/04 00:14:39;;;;;;;32.22;12.20;;;;;;;-148.88;100.00;-17125.47;5073759;28;20043;-87
2023/12/04 00:17:04;;;;;;;32.80;11.80;;;;;;;-148.88;100.00;-17125.47;5073989;28;20028;-87
2023/12/04 00:19:29;;;;;;;38.67;12.48;;;;;;;-148.88;100.00;-17125.47;5073643;28;20513;-86
2023/12/04 00:21:55;;;;;;;33.38;12.05;;;;;;;-148.88;100.00;-17125.47;5073814;28;20497;-87
2023/12/04 00:24:20;;;;;;;39.67;13.32;;;;;;;-148.88;100.00;-17125.47;5073970;28;20029;-87
2023/12/04 00:26:46;;;;;;;36.80;14.63;;;;;;;-148.88;100.00;-17125.47;5072042;28;20021;-87
2023/12/04 00:29:11;;;;;;;32.95;11.32;;;;;;;-148.88;100.00;-17125.47;5073241;28;20081;-87
2023/12/04 00:31:36;;;;;;;38.38;12.43;;;;;;;-148.88;100.00;-17125.47;5073602;28;20028;-86
2023/12/04 00:34:02;;;;;;;34.05;10.45;;;;;;;-148.88;100.00;-17125.47;5073973;28;20077;-87
2023/12/04 00:36:27;;;;;;;31.60;10.73;;;;;;;-148.88;100.00;-17125.47;5073594;28;20016;-87
2023/12/04 00:38:53;;;;;;;37.28;11.15;;;;;;;-148.88;100.00;-17125.47;5072899;28;20024;-87
2023/12/04 00:41:18;;;;;;;40.13;13.82;;;;;;;-148.88;100.00;-17125.47;5074123;28;20024;-88
2023/12/04 00:43:43;;;;;;;36.35;11.30;;;;;;;-148.88;100.00;-17125.47;5074088;28;20029;-88
2023/12/04 00:46:09;;;;;;;39.33;14.25;;;;;;;-148.88;100.00;-17125.47;5073427;28;20559;-87
2023/12/04 00:48:34;;;;;;;39.92;12.35;;;;;;;-148.88;100.00;-17125.47;5073331;28;20446;-87
2023/12/04 00:50:59;;;;;;;46.13;15.25;;;;;;;-148.88;100.00;-17125.47;5073346;28;20035;-87
2023/12/04 00:53:25;;;;;;;41.63;13.93;;;;;;;-148.88;100.00;-17125.47;5073526;28;20021;-88
2023/12/04 00:55:50;;;;;;;36.85;12.65;;;;;;;-148.88;100.00;-17125.47;5072155;28;20071;-86
2023/12/04 00:58:16;;;;;;;38.78;13.65;;;;;;;-148.88;100.00;-17125.47;5072919;28;20394;-87
2023/12/04 01:00:41;;;;;;;31.42;10.88;;;;;;;-148.88;100.00;-17125.47;5071735;28;20059;-87
2023/12/04 01:03:06;;;;;;;34.10;11.57;;;;;;;-148.88;100.00;-17125.47;5073516;28;20498;-87
2023/12/04 01:05:32;;;;;;;37.72;11.55;;;;;;;-148.88;100.00;-17125.47;5076677;28;20035;-86
2023/12/04 01:07:57;;;;;;;35.58;12.20;;;;;;;-148.88;100.00;-17125.47;5075098;28;20021;-87
2023/12/04 01:10:22;;;;;;;32.33;10.50;;;;;;;-148.88;100.00;-17125.47;5076473;28;20021;-88
2023/12/04 01:12:48;;;;;;;30.00;12.13;;;;;;;-148.88;100.00;-17125.47;5077697;28;20437;-86
2023/12/04 01:15:13;;;;;;;37.45;12.15;;;;;;;-148.88;100.00;-17125.47;5076972;28;20076;-87
2023/12/04 01:17:39;;;;;;;34.35;12.63;;;;;;;-148.88;100.00;-17125.47;5075727;28;20021;-87
2023/12/04 01:20:08;;;;;;;36.85;12.40;;;;;;;-148.88;100.00;-17125.47;5073547;28;20471;-87
2023/12/04 01:22:33;;;;;;;35.50;12.02;;;;;;;-148.88;100.00;-17125.47;5073220;28;20072;-87
2023/12/04 01:24:59;;;;;;;27.52;10.30;;;;;;;-148.88;100.00;-17125.47;5073794;28;20020;-87
2023/12/04 01:27:24;;;;;;;31.10;13.27;;;;;;;-148.88;100.00;-17125.47;5072807;28;20044;-88
2023/12/04 01:29:49;;;;;;;32.22;10.70;;;;;;;-148.88;100.00;-17125.47;5072940;28;20020;-86
2023/12/04 01:32:15;;;;;;;36.58;12.32;;;;;;;-148.88;100.00;-17125.47;5073242;28;20021;-88
2023/12/04 01:34:40;;;;;;;34.70;12.02;;;;;;;-148.88;100.00;-17125.47;5073292;28;20051;-88
2023/12/04 01:37:06;;;;;;;37.03;12.73;;;;;;;-148.88;100.00;-17125.47;5072695;28;20025;-88
2023/12/04 01:39:31;;;;;;;40.10;14.05;;;;;;;-148.88;100.00;-17125.47;5071505;28;20017;-88
2023/12/04 01:41:56;;;;;;;31.63;11.30;;;;;;;-148.88;100.00;-17125.47;5072832;28;20016;-88
2023/12/04 01:44:22;;;;;;;33.13;12.38;;;;;;;-148.88;100.00;-17125.47;5073428;28;20047;-88
2023/12/04 01:46:48;;;;;;;32.30;11.15;;;;;;;-148.88;100.00;-17125.47;5072768;28;20027;-87
2023/12/04 01:49:14;;;;;;;33.30;10.80;;;;;;;-148.88;100.00;-17125.47;5073169;28;20044;-88
2023/12/04 01:51:40;;;;;;;37.42;13.80;;;;;;;-148.88;100.00;-17125.47;5073561;28;20029;-88
2023/12/04 01:54:06;;;;;;;31.55;10.48;;;;;;;-148.88;100.00;-17125.47;5072842;28;20134;-87
2023/12/04 01:56:34;;;;;;;36.95;12.35;;;;;;;-148.88;100.00;-17125.47;5072926;28;20025;-88
2023/12/04 01:58:59;;;;;;;28.05;10.75;;;;;;;-148.88;100.00;-17125.47;5072527;28;20029;-87
2023/12/04 02:01:26;;;;;;;37.90;11.15;;;;;;;-148.88;100.00;-17125.47;5072928;28;20146;-87
2023/12/04 02:03:52;;;;;;;27.10;10.75;;;;;;;-148.88;100.00;-17125.47;5072609;28;20028;-87
2023/12/04 02:06:20;;;;;;;35.17;11.82;;;;;;;-148.88;100.00;-17125.47;5072626;28;20027;-88
2023/12/04 02:08:46;;;;;;;35.00;12.32;;;;;;;-148.88;100.00;-17125.47;5075880;28;20040;-87
2023/12/04 02:11:12;;;;;;;35.63;11.13;;;;;;;-148.88;100.00;-17125.47;5076127;28;20035;-87
2023/12/04 02:13:38;;;;;;;38.15;11.82;;;;;;;-148.88;100.00;-17125.47;5076081;28;20020;-87
2023/12/04 02:16:09;;;;;;;27.30;10.93;;;;;;;-148.88;100.00;-17125.47;5076218;28;20024;-87
2023/12/04 02:18:35;;;;;;;34.95;11.98;;;;;;;-148.88;100.00;-17125.47;5075114;28;20075;-88
2023/12/04 02:21:01;;;;;;;32.03;11.43;;;;;;;-148.88;100.00;-17125.47;5075781;28;20101;-87
2023/12/04 02:23:27;;;;;;;36.60;11.98;;;;;;;-148.88;100.00;-17125.47;5076383;28;20025;-87
2023/12/04 02:25:59;;;;;;;36.78;11.32;;;;;;;-148.88;100.00;-17125.47;5075450;28;20029;-88
2023/12/04 02:28:27;;;;;;;29.27;12.00;;;;;;;-148.88;100.00;-17125.47;5076320;28;20048;-87
2023/12/04 02:30:53;;;;;;;34.70;11.30;;;;;;;-148.88;100.00;-17125.47;5075843;28;20029;-88
2023/12/04 02:33:23;;;;;;;34.22;12.73;;;;;;;-148.88;100.00;-17125.47;5076445;28;20032;-86
2023/12/04 02:35:51;;;;;;;29.00;11.57;;;;;;;-148.88;100.00;-17125.47;5074642;28;20043;-88
2023/12/04 02:38:16;;;;;;;35.63;11.73;;;;;;;-148.88;100.00;-17125.47;5075513;28;20104;-88
2023/12/04 02:40:41;;;;;;;35.63;10.38;;;;;;;-148.88;100.00;-17125.47;5075515;28;20490;-87
2023/12/04 02:43:07;;;;;;;29.13;11.93;;;;;;;-148.88;100.00;-17125.47;5075821;28;20390;-87
2023/12/04 02:45:32;;;;;;;31.13;10.25;;;;;;;-148.88;100.00;-17125.47;5075721;28;20494;-87
2023/12/04 02:47:58;;;;;;;29.80;11.52;;;;;;;-148.88;100.00;-17125.47;5075611;28;20028;-87
2023/12/04 02:50:23;;;;;;;39.55;13.23;;;;;;;-148.88;100.00;-17125.47;5075477;28;20501;-88
2023/12/04 02:52:48;;;;;;;29.80;10.35;;;;;;;-148.88;100.00;-17125.47;5075705;28;20403;-87
2023/12/04 02:55:14;;;;;;;34.45;11.82;;;;;;;-148.88;100.00;-17125.47;5074378;28;20032;-87
2023/12/04 02:57:39;;;;;;;32.05;10.85;;;;;;;-148.88;100.00;-17125.47;5074369;28;20021;-88
2023/12/04 03:00:06;;;;;;;34.30;12.02;;;;;;;-148.88;100.00;-17125.47;5075465;28;20399;-88
2023/12/04 03:02:31;;;;;;;34.75;11.90;;;;;;;-148.88;100.00;-17125.47;5075183;28;20025;-87
2023/12/04 03:04:56;;;;;;;32.88;11.55;;;;;;;-148.88;100.00;-17125.47;5075188;28;20023;-87
2023/12/04 03:07:24;;;;;;;30.25;10.57;;;;;;;-148.88;100.00;-17125.47;5075261;28;20111;-88
2023/12/04 03:09:49;;;;;;;26.15;9.93;;;;;;;-148.88;100.00;-17125.47;5073748;28;20024;-87
2023/12/04 03:12:15;;;;;;;30.67;9.68;;;;;;;-148.88;100.00;-17125.47;5075361;28;20023;-87
2023/12/04 03:14:40;;;;;;;37.28;12.30;;;;;;;-148.88;100.00;-17125.47;5075329;28;20410;-87
2023/12/04 03:17:06;;;;;;;33.75;12.43;;;;;;;-148.88;100.00;-17125.47;5075302;28;20048;-87
2023/12/04 03:19:31;;;;;;;33.78;12.43;;;;;;;-148.88;100.00;-17125.47;5076248;28;20036;-88
2023/12/04 03:21:56;;;;;;;37.30;12.88;;;;;;;-148.88;100.00;-17125.47;5074016;28;20029;-89
2023/12/04 03:24:22;;;;;;;32.58;11.98;;;;;;;-148.88;100.00;-17125.47;5075396;28;20094;-88
2023/12/04 03:26:47;;;;;;;34.17;10.88;;;;;;;-148.88;100.00;-17125.47;5073691;28;20021;-86
2023/12/04 03:29:13;;;;;;;36.88;13.68;;;;;;;-148.88;100.00;-17125.47;5074826;28;20498;-88
2023/12/04 03:31:39;;;;;;;28.35;11.25;;;;;;;-148.88;100.00;-17125.47;5075681;28;20029;-87
2023/12/04 03:34:04;;;;;;;36.33;12.70;;;;;;;-148.88;100.00;-17125.47;5075828;28;20051;-88
2023/12/04 03:36:29;;;;;;;31.13;12.73;;;;;;;-148.88;100.00;-17125.47;5074708;28;20032;-89
2023/12/04 03:38:55;;;;;;;29.52;12.43;;;;;;;-148.88;100.00;-17125.47;5074895;28;20111;-91
2023/12/04 03:41:22;;;;;;;33.13;12.27;;;;;;;-148.88;100.00;-17125.47;5073620;28;20033;-91
2023/12/04 03:43:47;;;;;;;37.80;13.38;;;;;;;-148.88;100.00;-17125.47;5073682;28;20107;-91
2023/12/04 03:46:12;;;;;;;32.70;11.25;;;;;;;-148.88;100.00;-17125.47;5073446;28;20047;-90
2023/12/04 03:48:38;;;;;;;30.52;10.35;;;;;;;-148.88;100.00;-17125.47;5074906;28;20095;-90
2023/12/04 03:51:04;;;;;;;34.60;11.48;;;;;;;-148.88;100.00;-17125.47;5073288;28;20031;-90
2023/12/04 03:53:30;;;;;;;29.48;10.80;;;;;;;-148.88;100.00;-17125.47;5073545;28;20127;-90
2023/12/04 03:55:58;;;;;;;32.92;11.07;;;;;;;-148.88;100.00;-17125.47;5073118;28;20107;-90
2023/12/04 03:58:23;;;;;;;26.35;10.43;;;;;;;-148.88;100.00;-17125.47;5073051;28;20028;-90
2023/12/04 04:00:49;;;;;;;29.23;9.90;;;;;;;-148.88;100.00;-17125.47;5073162;28;20099;-90
2023/12/04 04:03:14;;;;;;;29.88;10.43;;;;;;;-148.88;100.00;-17125.47;5073438;28;20021;-90
2023/12/04 04:05:40;;;;;;;28.20;11.27;;;;;;;-148.88;100.00;-17125.47;5075160;28;20025;-90
2023/12/04 04:08:07;;;;;;;21.58;8.57;;;;;;;-148.88;100.00;-17125.47;5075077;28;20399;-91
2023/12/04 04:10:32;;;;;;;30.15;10.25;;;;;;;-148.88;100.00;-17125.47;5073453;28;20098;-89
2023/12/04 04:12:58;;;;;;;24.30;10.18;;;;;;;-148.88;100.00;-17125.47;5073938;28;20471;-90
2023/12/04 04:15:23;;;;;;;20.30;8.77;;;;;;;-148.88;100.00;-17125.47;5072801;28;20115;-89
2023/12/04 04:17:49;;;;;;;22.08;9.77;;;;;;;-148.88;100.00;-17125.47;5073684;28;20386;-90
2023/12/04 04:20:14;;;;;;;23.92;9.77;;;;;;;-148.88;100.00;-17125.47;5073842;28;20403;-90
2023/12/04 04:22:40;;;;;;;22.73;8.05;;;;;;;-148.88;100.00;-17125.47;5074180;28;20099;-89
2023/12/04 04:25:09;;;;;;;21.58;8.57;;;;;;;-148.88;100.00;-17125.47;5072700;28;20020;-90
2023/12/04 04:27:35;;;;;;;22.27;9.32;;;;;;;-148.88;100.00;-17125.47;5072295;28;20029;-90
2023/12/04 04:30:02;;;;;;;26.65;10.40;;;;;;;-148.88;100.00;-17125.47;5072355;28;20052;-90
2023/12/04 04:32:27;;;;;;;25.20;9.48;;;;;;;-148.88;100.00;-17125.47;5072562;28;20119;-90
2023/12/04 04:34:53;;;;;;;21.88;8.20;;;;;;;-148.88;100.00;-17125.47;5072242;28;20107;-90
2023/12/04 04:37:19;;;;;;;21.67;7.80;;;;;;;-148.88;100.00;-17125.47;5074024;28;20016;-89
2023/12/04 04:39:45;;;;;;;20.48;8.77;;;;;;;-148.88;100.00;-17125.47;5073103;28;20503;-89
2023/12/04 04:42:11;;;;;;;22.00;8.63;;;;;;;-148.88;100.00;-17125.47;5073110;28;20053;-90
2023/12/04 04:44:36;;;;;;;21.73;8.75;;;;;;;-148.88;100.00;-17125.47;5072678;28;20051;-90
2023/12/04 04:47:02;;;;;;;20.00;8.35;;;;;;;-148.88;100.00;-17125.47;5072332;28;20027;-90
2023/12/04 04:49:27;;;;;;;23.92;9.25;;;;;;;-148.88;100.00;-17125.47;5073574;28;20016;-90
2023/12/04 04:51:53;;;;;;;19.30;7.75;;;;;;;-148.88;100.00;-17125.47;5072907;28;20031;-90
2023/12/04 04:54:18;;;;;;;23.20;8.55;;;;;;;-148.88;100.00;-17125.47;5071951;28;20029;-90
2023/12/04 04:56:44;;;;;;;20.30;8.73;;;;;;;-148.88;100.00;-17125.47;5071769;28;20039;-90
2023/12/04 04:59:09;;;;;;;17.85;8.15;;;;;;;-148.88;100.00;-17125.47;5071879;28;20030;-91
2023/12/04 05:01:35;;;;;;;19.58;7.82;;;;;;;-148.88;100.00;-17125.47;5072106;28;20024;-90
2023/12/04 05:04:00;;;;;;;20.60;8.60;;;;;;;-148.88;100.00;-17125.47;5071986;28;20028;-90
2023/12/04 05:06:25;;;;;;;20.13;7.63;;;;;;;-148.88;100.00;-17125.47;5073303;28;20031;-90
2023/12/04 05:08:52;;;;;;;18.50;7.68;;;;;;;-148.88;100.00;-17125.47;5073238;28;20450;-90
2023/12/04 05:11:18;;;;;;;18.48;8.18;;;;;;;-148.88;100.00;-17125.47;5072073;28;20075;-91
2023/12/04 05:13:45;;;;;;;20.95;8.20;;;;;;;-148.88;100.00;-17125.47;5072358;28;20063;-90
2023/12/04 05:16:10;;;;;;;22.38;8.32;;;;;;;-148.88;100.00;-17125.47;5072603;28;20158;-90
2023/12/04 05:18:36;;;;;;;17.92;7.25;;;;;;;-148.88;100.00;-17125.47;5072659;28;20519;-89
2023/12/04 05:21:01;;;;;;;18.10;7.25;;;;;;;-148.88;100.00;-17125.47;5071979;28;20032;-91
2023/12/04 05:23:26;;;;;;;22.83;8.32;;;;;;;-148.88;100.00;-17125.47;5072240;28;20028;-91
2023/12/04 05:25:52;;;;;;;19.63;8.07;;;;;;;-148.88;100.00;-17125.47;5073219;28;20029;-88
2023/12/04 05:28:17;;;;;;;18.45;7.03;;;;;;;-148.88;100.00;-17125.47;5073032;28;20036;-87
2023/12/04 05:30:43;;;;;;;19.88;7.75;;;;;;;-148.88;100.00;-17125.47;5071750;28;20039;-87
2023/12/04 05:33:08;;;;;;;19.02;7.50;;;;;;;-148.88;100.00;-17125.47;5072696;28;20023;-86
2023/12/04 05:35:34;;;;;;;17.92;7.30;;;;;;;-148.88;100.00;-17125.47;5072692;28;20367;-86
2023/12/04 05:38:00;;;;;;;16.15;6.47;;;;;;;-148.88;100.00;-17125.47;5072549;28;20387;-88
2023/12/04 05:40:26;;;;;;;19.50;7.05;;;;;;;-148.88;100.00;-17125.47;5072824;28;20036;-87
2023/12/04 05:42:51;;;;;;;16.70;6.47;;;;;;;-148.88;100.00;-17125.47;5075453;28;20116;-88
2023/12/04 05:45:17;;;;;;;18.92;7.45;;;;;;;-148.88;100.00;-17125.47;5076760;28;20042;-88
2023/12/04 05:47:42;;;;;;;14.15;5.78;;;;;;;-148.88;100.00;-17125.47;5075495;28;20378;-87
2023/12/04 05:50:08;;;;;;;20.35;6.90;;;;;;;-148.88;100.00;-17125.47;5077027;28;20462;-88
2023/12/04 05:52:33;;;;;;;24.30;7.65;;;;;;;-148.88;100.00;-17125.47;5075974;28;20035;-88
2023/12/04 05:54:59;;;;;;;20.38;7.43;;;;;;;-148.88;100.00;-17125.47;5076719;28;20021;-88
2023/12/04 05:57:24;;;;;;;18.23;8.00;;;;;;;-148.88;100.00;-17125.47;5074889;28;20056;-87
2023/12/04 05:59:50;;;;;;;16.63;7.78;;;;;;;-148.88;100.00;-17125.47;5074791;28;20156;-88
2023/12/04 06:02:15;;;;;;;14.93;6.38;;;;;;;-148.88;100.00;-17125.47;5076765;28;20024;-88
2023/12/04 06:04:41;;;;;;;19.65;7.45;;;;;;;-148.88;100.00;-17125.47;5076009;28;20478;-87
2023/12/04 06:07:06;;;;;;;19.08;7.18;;;;;;;-148.88;100.00;-17125.47;5076303;28;20028;-88
2023/12/04 06:09:32;;;;;;;14.10;6.40;;;;;;;-148.88;100.00;-17125.47;5076647;28;20025;-89
2023/12/04 06:11:58;;;;;;;16.08;7.03;;;;;;;-148.88;100.00;-17125.47;5074688;28;20048;-88
2023/12/04 06:14:23;;;;;;;15.90;6.55;;;;;;;-148.88;100.00;-17125.47;5075157;28;20024;-87
2023/12/04 06:16:48;;;;;;;15.70;6.55;;;;;;;-148.88;100.00;-17125.47;5076083;28;20475;-86
2023/12/04 06:19:14;;;;;;;16.15;6.18;;;;;;;-148.88;100.00;-17125.47;5076076;28;20020;-87
2023/12/04 06:21:40;;;;;;;16.08;7.75;;;;;;;-148.88;100.00;-17125.47;5075274;28;20474;-88
2023/12/04 06:24:06;;;;;;;17.90;7.00;;;;;;;-148.88;100.00;-17125.47;5076034;28;20085;-87
2023/12/04 06:26:31;;;;;;;15.18;5.65;;;;;;;-148.88;100.00;-17125.47;5075141;28;20115;-87
2023/12/04 06:28:57;;;;;;;14.07;5.65;;;;;;;-148.88;100.00;-17125.47;5076925;28;20420;-89
2023/12/04 06:31:23;;;;;;;13.68;5.90;;;;;;;-148.88;100.00;-17125.47;5075530;28;20028;-87
2023/12/04 06:33:49;;;;;;;16.75;6.20;;;;;;;-148.88;100.00;-17125.47;5075358;28;20032;-86
2023/12/04 06:36:15;;;;;;;15.20;6.43;;;;;;;-148.88;100.00;-17125.47;5075284;28;20030;-86
2023/12/04 06:38:41;;;;;;;17.63;6.53;;;;;;;-148.88;100.00;-17125.47;5075499;28;20025;-87
2023/12/04 06:41:07;;;;;;;15.02;6.45;;;;;;;-148.88;100.00;-17125.47;5075460;28;20431;-87
2023/12/04 06:43:33;;;;;;;15.05;6.55;;;;;;;-148.88;100.00;-17125.47;5076147;28;20102;-86
2023/12/04 06:45:59;;;;;;;15.48;6.03;;;;;;;-148.88;100.00;-17125.47;5075501;28;20106;-87
2023/12/04 06:48:25;;;;;;;17.27;6.65;;;;;;;-148.88;100.00;-17125.47;5075416;28;20533;-85
2023/12/04 06:50:50;;;;;;;11.63;5.85;;;;;;;-148.88;100.00;-17125.47;5075458;28;20028;-85
2023/12/04 06:53:16;;;;;;;18.30;6.68;;;;;;;-148.88;100.00;-17125.47;5075420;28;20108;-85
2023/12/04 06:55:41;;;;;;;15.27;7.10;;;;;;;-148.88;100.00;-17125.47;5075584;28;20024;-83
2023/12/04 06:58:07;;;;;;;15.55;6.80;;;;;;;-148.88;100.00;-17125.47;5075417;28;20020;-85
2023/12/04 07:00:32;;;;;;;17.50;7.15;;;;;;;-148.88;100.00;-17125.47;5075482;28;20021;-84
2023/12/04 07:02:57;;;;;;;15.32;6.60;;;;;;;-148.88;100.00;-17125.47;5076056;28;20147;-84
2023/12/04 07:05:23;;;;;;;14.52;6.40;;;;;;;-148.88;100.00;-17125.47;5075633;28;20020;-86
2023/12/04 07:07:48;;;;;;;14.15;6.10;;;;;;;-148.88;100.00;-17125.47;5073634;28;20379;-85
2023/12/04 07:10:14;;;;;;;13.63;5.43;;;;;;;-148.88;100.00;-17125.47;5074596;28;20078;-84
2023/12/04 07:12:44;;;;;;;13.50;6.60;;;;;;;-148.88;100.00;-17125.47;5074730;28;20033;-85
2023/12/04 07:15:11;;;;;;;15.80;7.03;;;;;;;-148.88;100.00;-17125.47;5073288;28;20090;-85
2023/12/04 07:17:37;;;;;;;19.73;6.93;;;;;;;-148.88;100.00;-17125.47;5072103;28;20048;-84
2023/12/04 07:20:06;;;;;;;17.35;7.45;;;;;;;-148.88;100.00;-17125.47;5074594;28;20498;-84
2023/12/04 07:22:32;;;;;;;12.82;6.03;;;;;;;-148.88;100.00;-17125.47;5073415;28;20429;-85
2023/12/04 07:24:57;;;;;;;17.63;6.40;;;;;;;-148.88;100.00;-17125.47;5074752;28;20027;-87
2023/12/04 07:27:22;;;;;;;16.83;6.15;;;;;;;-148.88;100.00;-17125.47;5075013;28;20035;-88
2023/12/04 07:29:48;;;;;;;18.15;6.90;;;;;;;-148.88;100.00;-17125.47;5073423;28;20023;-88
2023/12/04 07:32:14;;;;;;;14.88;6.22;;;;;;;-148.88;100.00;-17125.47;5075256;28;20127;-87
2023/12/04 07:34:39;;;;;;;15.32;6.80;;;;;;;-148.88;100.00;-17125.47;5075264;28;20048;-87
2023/12/04 07:37:04;;;;;;;13.90;5.88;;;;;;;-148.88;100.00;-17125.47;5075234;28;20024;-88
2023/12/04 07:39:30;;;;;;;14.43;6.47;;;;;;;-148.88;100.00;-17125.47;5075578;28;20074;-87
2023/12/04 07:41:55;;;;;;;14.43;5.78;;;;;;;-148.88;100.00;-17125.47;5074846;28;20020;-86
2023/12/04 07:44:21;;;;;;;17.25;6.97;;;;;;;-148.88;100.00;-17125.47;5074842;28;20032;-89
2023/12/04 07:46:46;;;;;;;17.00;6.25;;;;;;;-148.88;100.00;-17125.47;5074473;28;20094;-87
2023/12/04 07:49:12;;;;;;;17.27;6.38;;;;;;;-148.88;100.00;-17125.47;5074299;28;20027;-87
2023/12/04 07:51:37;;;;;;;14.38;6.25;;;;;;;-148.88;100.00;-17125.47;5074008;28;20488;-87
2023/12/04 07:54:04;;;;;;;14.25;6.40;;;;;;;-148.88;100.00;-17125.47;5074400;28;20487;-88
2023/12/04 07:56:30;;;;;;;15.80;6.05;;;;;;;-148.88;100.00;-17125.47;5074358;28;20501;-87
2023/12/04 07:58:55;;;;;;;15.45;5.88;;;;;;;-148.88;100.00;-17125.47;5072627;28;20029;-88
2023/12/04 08:01:21;;;;;;;13.45;6.05;;;;;;;-148.88;100.00;-17125.47;5074205;28;20069;-87
2023/12/04 08:03:46;;;;;;;12.35;5.65;;;;;;;-148.88;100.00;-17125.47;5072981;28;20061;-87
2023/12/04 08:06:12;;;;;;;14.82;6.40;;;;;;;-148.88;100.00;-17125.47;5073627;28;20474;-86
2023/12/04 08:08:37;;;;;;;13.35;6.18;;;;;;;-148.88;100.00;-17125.47;5073889;28;20035;-87
2023/12/04 08:11:03;;;;;;;16.70;6.20;;;;;;;-148.88;100.00;-17125.47;5074286;28;20016;-85
2023/12/04 08:13:29;;;;;;;16.13;6.22;;;;;;;-148.88;100.00;-17125.47;5072929;28;20043;-87
2023/12/04 08:15:54;;;;;;;13.38;6.05;;;;;;;-148.88;100.00;-17125.47;5073174;28;20030;-87
2023/12/04 08:18:19;;;;;;;16.60;7.03;;;;;;;-148.88;100.00;-17125.47;5073769;28;20099;-86
2023/12/04 08:20:45;;;;;;;16.33;5.60;;;;;;;-148.88;100.00;-17125.47;5073828;28;20120;-88
2023/12/04 08:23:10;;;;;;;14.20;5.75;;;;;;;-148.88;100.00;-17125.47;5074368;28;20035;-87
2023/12/04 08:25:38;;;;;;;16.13;6.38;;;;;;;-148.88;100.00;-17125.47;5072748;28;20025;-87
2023/12/04 08:28:04;;;;;;;12.02;6.07;;;;;;;-148.88;100.00;-17125.47;5073683;28;20027;-87
2023/12/04 08:30:29;;;;;;;14.27;6.22;;;;;;;-148.88;100.00;-17125.47;5074069;28;20111;-86
2023/12/04 08:32:55;;;;;;;13.63;5.38;;;;;;;-148.88;100.00;-17125.47;5072656;28;20020;-87
2023/12/04 08:35:21;;;;;;;11.60;4.82;;;;;;;-148.88;100.00;-17125.47;5073777;28;20029;-90
2023/12/04 08:37:47;;;;;;;14.07;5.25;;;;;;;-148.88;100.00;-17125.47;5071968;28;20444;-87
2023/12/04 08:40:12;;;;;;;15.10;5.95;;;;;;;-148.88;100.00;-17125.47;5073726;28;20105;-87
2023/12/04 08:42:38;;;;;;;15.95;6.53;;;;;;;-148.88;100.00;-17125.47;5073942;28;20033;-86
2023/12/04 08:45:05;;;;;;;13.85;6.13;;;;;;;-148.88;100.00;-17125.47;5073500;28;20115;-87
2023/12/04 08:47:31;;;;;;;13.95;5.88;;;;;;;-148.88;100.00;-17125.47;5073875;28;20073;-88
2023/12/04 08:49:57;;;;;;;18.25;6.53;;;;;;;-148.88;100.00;-17125.47;5074196;28;20432;-89
2023/12/04 08:52:22;;;;;;;9.95;5.25;;;;;;;-148.88;100.00;-17125.47;5073702;28;20028;-87
2023/12/04 08:54:47;;;;;;;16.35;5.85;;;;;;;-148.88;100.00;-17125.47;5073771;28;20488;-88
2023/12/04 08:57:13;;;;;;;13.38;6.40;;;;;;;-148.88;100.00;-17125.47;5073571;28;20024;-87
2023/12/04 08:59:38;;;;;;;13.82;5.47;;;;;;;-148.88;100.00;-17125.47;5073322;28;20035;-88
2023/12/04 09:02:04;;;;;;;13.05;5.10;;;;;;;-148.88;100.00;-17125.47;5074162;28;20027;-90
2023/12/04 09:04:31;;;;;;;11.50;6.07;;;;;;;-148.88;100.00;-17125.47;5076810;28;20020;-91
2023/12/04 09:06:56;;;;;;;14.55;6.25;;;;;;;-148.88;100.00;-17125.47;5076495;28;20074;-92
2023/12/04 09:09:22;;;;;;;15.38;6.30;;;;;;;-148.88;100.00;-17125.47;5082155;28;20032;-90
2023/12/04 09:11:47;;;;;;;15.48;6.72;;;;;;;-148.88;100.00;-17125.47;5077507;28;20029;-90
2023/12/04 09:14:14;;;;;;;13.38;5.85;;;;;;;-148.88;100.00;-17125.47;5073312;28;20035;-90
2023/12/04 09:16:42;;;;;;;19.95;5.53;;;;;;;-148.88;100.00;-17125.47;5074022;28;20086;-90
2023/12/04 09:19:08;;;;;;;12.93;5.35;;;;;;;-148.88;100.00;-17125.47;5076266;28;20056;-87
2023/12/04 09:21:33;;;;;;;14.07;6.05;;;;;;;-148.88;100.00;-17125.47;5076131;28;20101;-86
2023/12/04 09:23:58;;;;;;;16.08;6.55;;;;;;;-148.88;100.00;-17125.47;5076290;28;20035;-87
2023/12/04 09:26:24;;;;;;;14.70;7.00;;;;;;;-148.88;100.00;-17125.47;5077137;28;20433;-87
2023/12/04 09:28:49;;;;;;;17.33;5.72;;;;;;;-148.88;100.00;-17125.47;5076282;28;20021;-88
2023/12/04 09:31:15;;;;;;;12.23;6.05;;;;;;;-148.88;100.00;-17125.47;5075775;28;20445;-87
2023/12/04 09:33:40;;;;;;;14.52;6.25;;;;;;;-148.88;100.00;-17125.47;5075949;28;20029;-87
2023/12/04 09:36:06;;;;;;;14.43;6.60;;;;;;;-148.88;100.00;-17125.47;5075580;28;20095;-87
2023/12/04 09:38:32;;;;;;;15.13;6.45;;;;;;;-148.88;100.00;-17125.47;5074184;28;20123;-88
2023/12/04 09:41:02;;;;;;;17.17;6.45;;;;;;;-148.88;100.00;-17125.47;5075662;28;20020;-87
2023/12/04 09:43:31;;;;;;;12.40;5.43;;;;;;;-148.88;100.00;-17125.47;5075253;28;20104;-84
2023/12/04 09:45:57;;;;;;;12.38;5.80;;;;;;;-148.88;100.00;-17125.47;5075229;28;20059;-87
2023/12/04 09:48:26;;;;;;;14.15;5.95;;;;;;;-148.88;99.57;-17125.47;5075370;28;20455;-86
2023/12/04 09:50:52;;;;;;;15.80;6.45;;;;;;;-148.88;99.71;-17125.47;5075631;28;20479;-86
2023/12/04 09:53:19;;;;;;;17.05;7.20;;;;;;;-148.88;99.72;-17125.47;5076251;28;20025;-87
2023/12/04 09:55:48;;;;;;;13.45;5.75;;;;;;;-148.88;100.00;-17125.47;5075085;28;20060;-86
2023/12/04 09:58:15;;;;;;;13.73;5.55;;;;;;;-148.88;100.00;-17125.47;5075453;28;20017;-85
2023/12/04 10:00:42;;;;;;;16.13;6.18;;;;;;;-148.88;99.61;-17125.47;5076325;28;20117;-85
2023/12/04 10:03:08;;;;;;;14.52;6.10;;;;;;;-148.88;100.00;-17125.47;5078285;28;20057;-84
2023/12/04 10:05:33;;;;;;;13.73;6.35;;;;;;;-148.88;99.51;-17125.47;5078653;28;20119;-84
2023/12/04 10:07:58;;;;;;;13.25;5.78;;;;;;;-148.88;99.79;-17125.47;5034791;28;1144802;-85
2023/12/04 10:10:24;;;;;;;14.00;5.75;;;;;;;-148.88;97.55;-17125.47;5077572;28;20021;-89
2023/12/04 10:12:50;;;;;;;16.55;6.80;;;;;;;-148.88;98.50;-17125.47;5076055;28;20084;-86
2023/12/04 10:15:16;;;;;;;16.20;6.82;;;;;;;-148.88;98.32;-17125.47;5076344;28;20557;-87
2023/12/04 10:17:43;;;;;;;15.40;6.55;;;;;;;-148.88;97.79;-17125.47;5076598;28;20059;-87
2023/12/04 10:20:17;;;;;;;11.05;5.72;;;;;;;-148.88;96.75;-17125.47;5076247;28;20387;-86
2023/12/04 10:22:55;;;;;;;;;;;;;;;-148.88;97.00;-17125.47;5076894;28;20483;-88
2023/12/04 10:25:21;;;;;;;11.75;5.43;;;;;;;-148.88;98.64;-17125.47;5076265;28;19915;-85
2023/12/04 10:27:47;;;;;;;12.48;5.32;;;;;;;-148.88;96.66;-17125.47;5075455;28;20032;-86
2023/12/04 10:30:31;;;;;;;8.77;4.13;;;;;;;-148.88;96.66;-17125.47;5075777;28;20099;-85
2023/12/04 10:33:00;;;;;;;13.95;6.32;;;;;;;-148.88;95.90;-17125.47;5076159;28;20048;-87
2023/12/04 10:35:29;;;;;;;13.70;5.93;;;;;;;-148.88;96.30;-17125.47;5076849;28;20036;-87
2023/12/04 10:37:56;;;;;;;14.30;5.72;;;;;;;-148.88;96.07;-17125.47;5076736;28;20024;-87
2023/12/04 10:40:26;;;;;;;12.68;5.63;;;;;;;-148.88;96.64;-17125.47;5074352;28;20419;-88
2023/12/04 10:43:10;;;;;;;10.35;4.60;;;;;;;-148.88;96.75;-17125.47;5075946;28;20024;-87
2023/12/04 10:45:37;;;;;;;11.75;5.40;;;;;;;-148.88;96.32;-17125.47;5075668;28;20491;-87